Main page
METAR-TAF:

METAR-TAF

Airports :

Rajmata Vijaya Raje Scindia Airport

Gwalior, India

latitude: 26-17-36N, longitude: 78-13-40E, elevation: 188 m

METAR: missing

Time: 02:53 (21:23 UTC)

Forecast

The report was made 11 hours and 53 minutes ago, at 09:30 UTC
Forecast valid from 01 at 12 UTC to 01 at 24 UTC
Wind 5 kt from the West/Northwest
Visibility: 4500 m
haze
Becoming
from 01 at 13 UTC to 01 at 15 UTC
Wind 3 kt from variable directions
Visibility: 3500 m
haze
Becoming
from 01 at 20 UTC to 01 at 22 UTC
Visibility: 2000 m
mist

TAF: VIGR 010930Z 0112/0124 29005KT 4500 HZ NSC BECMG 0113/0115 VRB03KT 3500 HZ NSC BECMG 0120/0122 2000 BR NSC

Weather observations and forecasts of more than 4000 airports (METAR and TAF reports).

The available stations are represented by yellow and red dots on the map.

Hover mouse over dot to see the name of the station.

Then click to see weather observations and forecasts.

To change the map : click on the green buttons with a black cross to zoom in, on the green button with a dash to zoom out, or on the green arrows for adjacent maps.


METAR-TAF: